createdAt,value
2019-04-04T00:02:04.321Z,23.45
2019-04-04T00:04:33.635Z,23.12
2019-04-04T00:07:22.231Z,22.05
2019-04-04T00:09:51.478Z,24.98
2019-04-04T00:12:20.654Z,23.12
2019-04-04T00:14:51.007Z,20.60
2019-04-04T00:17:22.879Z,21.42
2019-04-04T00:19:51.125Z,24.35
2019-04-04T00:22:20.299Z,22.90
2019-04-04T00:24:49.460Z,20.52
2019-04-04T00:27:18.715Z,21.10
2019-04-04T00:29:48.533Z,21.25
2019-04-04T00:32:20.778Z,22.73
2019-04-04T00:34:49.118Z,22.15
2019-04-04T00:37:18.769Z,24.00
2019-04-04T00:39:48.243Z,22.52
2019-04-04T00:42:17.957Z,24.15
2019-04-04T00:44:47.360Z,23.35
2019-04-04T00:47:16.863Z,24.02
2019-04-04T00:49:46.240Z,20.15
2019-04-04T00:52:15.769Z,22.00
2019-04-04T00:54:45.463Z,20.52
2019-04-04T00:57:15.290Z,21.05
2019-04-04T00:59:44.587Z,22.70
2019-04-04T01:02:14.113Z,20.90
2019-04-04T01:04:43.451Z,22.22
2019-04-04T01:07:12.676Z,21.33
2019-04-04T01:09:41.925Z,21.42
2019-04-04T01:12:11.096Z,21.33
2019-04-04T01:14:40.265Z,20.48
2019-04-04T01:17:09.452Z,24.18
2019-04-04T01:19:38.661Z,19.52
2019-04-04T01:22:07.851Z,22.62
2019-04-04T01:24:37.108Z,23.22
2019-04-04T01:27:06.916Z,23.32
2019-04-04T01:29:36.340Z,22.73
2019-04-04T01:32:05.527Z,19.52
2019-04-04T01:34:34.694Z,21.00
2019-04-04T01:37:03.875Z,19.87
2019-04-04T01:39:33.171Z,22.62
2019-04-04T01:42:02.444Z,18.60
2019-04-04T01:44:31.688Z,21.93
2019-04-04T01:47:00.878Z,19.65
2019-04-04T01:49:30.115Z,19.70
2019-04-04T01:51:59.337Z,19.90
2019-04-04T01:54:29.973Z,20.40
2019-04-04T01:56:59.436Z,20.30
2019-04-04T01:59:28.613Z,20.70
2019-04-04T02:01:57.778Z,19.30
2019-04-04T02:04:26.960Z,21.50
2019-04-04T02:06:58.999Z,21.70
2019-04-04T02:09:27.068Z,19.12
2019-04-04T02:11:56.247Z,20.75
2019-04-04T02:14:25.399Z,21.30
2019-04-04T02:16:54.584Z,21.10
2019-04-04T02:19:24.846Z,24.05
2019-04-04T02:21:54.714Z,24.32
2019-04-04T02:24:23.909Z,23.35
2019-04-04T02:26:53.079Z,21.07
2019-04-04T02:29:22.279Z,23.55
2019-04-04T02:31:58.596Z,25.02
2019-04-04T02:34:27.844Z,23.45
2019-04-04T02:36:57.010Z,21.52
2019-04-04T02:39:26.170Z,25.17
2019-04-04T02:41:55.551Z,23.35
2019-04-04T02:44:24.759Z,24.05
2019-04-04T02:46:54.019Z,25.88
2019-04-04T02:49:28.155Z,21.00
2019-04-04T02:51:54.299Z,22.25
2019-04-04T02:54:25.715Z,21.27
2019-04-04T02:56:55.363Z,21.25
2019-04-04T02:59:24.552Z,21.35
2019-04-04T03:01:53.809Z,23.15
2019-04-04T03:04:22.978Z,26.17
2019-04-04T03:06:55.005Z,22.40
2019-04-04T03:09:23.155Z,20.80
2019-04-04T03:11:54.075Z,22.65
2019-04-04T03:14:24.535Z,22.20
2019-04-04T03:16:56.784Z,23.57
2019-04-04T03:19:25.797Z,21.60
2019-04-04T03:21:56.792Z,22.52
2019-04-04T03:24:26.027Z,23.10
2019-04-04T03:26:55.278Z,24.20
2019-04-04T03:29:24.433Z,22.73
2019-04-04T03:31:53.678Z,19.25
2019-04-04T03:34:22.888Z,19.32
2019-04-04T03:36:52.133Z,21.00
2019-04-04T03:39:21.343Z,17.15
2019-04-04T03:41:50.717Z,19.07
2019-04-04T03:44:20.776Z,17.00
2019-04-04T03:46:50.203Z,17.40
2019-04-04T03:49:23.374Z,18.32
2019-04-04T03:51:50.382Z,17.85
2019-04-04T03:54:23.245Z,17.07
2019-04-04T03:56:52.299Z,18.32
2019-04-04T03:59:21.534Z,15.40
2019-04-04T04:02:00.727Z,17.00
2019-04-04T04:04:29.920Z,16.37
2019-04-04T04:06:59.310Z,16.65
2019-04-04T04:09:28.691Z,13.85
2019-04-04T04:11:57.930Z,15.93
2019-04-04T04:14:27.261Z,15.55
2019-04-04T04:16:56.496Z,19.45
2019-04-04T04:19:29.877Z,16.32
2019-04-04T04:21:56.607Z,18.62
2019-04-04T04:24:26.607Z,16.65
2019-04-04T04:26:56.730Z,19.62
2019-04-04T04:29:29.575Z,17.77
2019-04-04T04:31:57.003Z,17.30
2019-04-04T04:34:26.233Z,18.77
2019-04-04T04:36:55.443Z,18.55
2019-04-04T04:39:24.680Z,18.10
2019-04-04T04:41:54.460Z,17.57
2019-04-04T04:44:23.816Z,15.90
2019-04-04T04:46:52.984Z,14.68
2019-04-04T04:49:23.427Z,13.93
2019-04-04T04:51:54.016Z,14.30
2019-04-04T04:54:23.558Z,12.70
2019-04-04T04:56:53.140Z,14.98
2019-04-04T04:59:22.400Z,12.35
2019-04-04T05:01:51.660Z,11.68
2019-04-04T05:04:20.926Z,13.08
2019-04-04T05:06:50.223Z,13.85
2019-04-04T05:09:19.614Z,13.35
2019-04-04T05:11:50.238Z,11.63
2019-04-04T05:14:19.962Z,17.00
2019-04-04T05:16:49.277Z,13.60
2019-04-04T05:19:19.002Z,11.55
2019-04-04T05:21:48.762Z,13.40
2019-04-04T05:24:18.732Z,15.23
2019-04-04T05:26:48.000Z,12.07
2019-04-04T05:29:17.248Z,11.05
2019-04-04T05:31:49.776Z,11.95
2019-04-04T05:34:17.560Z,11.50
2019-04-04T05:36:46.870Z,12.65
2019-04-04T05:39:18.110Z,11.25
2019-04-04T05:41:46.911Z,10.58
2019-04-04T05:44:16.066Z,9.38
2019-04-04T05:46:45.421Z,9.75
2019-04-04T05:49:14.682Z,12.25
2019-04-04T05:51:46.291Z,11.33
2019-04-04T05:54:15.845Z,11.08
2019-04-04T05:56:48.771Z,14.18
2019-04-04T05:59:26.133Z,11.55
2019-04-04T06:01:57.877Z,10.70
2019-04-04T06:04:27.102Z,12.15
2019-04-04T06:06:56.397Z,11.60
2019-04-04T06:09:25.697Z,10.23
2019-04-04T06:11:55.332Z,9.33
2019-04-04T06:14:24.715Z,12.70
2019-04-04T06:16:53.954Z,10.68
2019-04-04T06:19:23.102Z,13.75
2019-04-04T06:21:52.266Z,9.63
2019-04-04T06:24:21.422Z,8.75
2019-04-04T06:26:50.599Z,11.28
2019-04-04T06:29:19.776Z,10.00
2019-04-04T06:31:48.992Z,10.13
2019-04-04T06:34:18.140Z,10.53
2019-04-04T06:36:49.158Z,10.23
2019-04-04T06:39:20.109Z,10.93
2019-04-04T06:41:49.296Z,13.85
2019-04-04T06:44:18.466Z,14.80
2019-04-04T06:46:47.666Z,15.78
2019-04-04T06:49:18.099Z,22.93
2019-04-04T06:51:47.374Z,16.10
2019-04-04T06:54:16.612Z,11.68
2019-04-04T06:56:45.770Z,12.85
2019-04-04T06:59:14.956Z,14.28
2019-04-04T07:01:44.122Z,18.20
2019-04-04T07:04:13.302Z,15.55
2019-04-04T07:06:42.551Z,12.28
2019-04-04T07:09:13.494Z,14.23
2019-04-04T07:11:42.629Z,12.65
2019-04-04T07:14:11.879Z,13.98
2019-04-04T07:16:41.210Z,13.35
2019-04-04T07:19:14.141Z,14.80
2019-04-04T07:21:41.313Z,12.43
2019-04-04T07:24:10.548Z,17.10
2019-04-04T07:26:40.981Z,13.15
2019-04-04T07:29:10.152Z,13.72
2019-04-04T07:31:39.315Z,13.93
2019-04-04T07:34:08.483Z,19.95
2019-04-04T07:36:37.654Z,11.93
2019-04-04T07:39:06.897Z,15.32
2019-04-04T07:41:39.922Z,13.20
2019-04-04T07:44:07.098Z,14.87
2019-04-04T07:46:36.326Z,16.30
2019-04-04T07:49:05.511Z,14.68
2019-04-04T07:51:35.889Z,13.83
2019-04-04T07:54:07.365Z,13.22
2019-04-04T07:56:37.372Z,14.43
2019-04-04T07:59:06.645Z,17.37
2019-04-04T08:01:35.971Z,13.45
2019-04-04T08:04:06.671Z,13.68
2019-04-04T08:06:36.099Z,14.07
2019-04-04T08:09:07.403Z,13.68
2019-04-04T08:11:36.573Z,11.88
2019-04-04T08:14:06.027Z,13.43
2019-04-04T08:16:35.198Z,13.13
2019-04-04T08:19:04.371Z,13.03
2019-04-04T08:21:33.560Z,14.28
2019-04-04T08:24:22.212Z,13.30
2019-04-04T08:26:51.385Z,14.55
2019-04-04T08:29:20.625Z,13.35
2019-04-04T08:31:49.793Z,15.25
2019-04-04T08:34:18.947Z,12.37
2019-04-04T08:36:48.177Z,13.43
2019-04-04T08:39:17.339Z,11.88
2019-04-04T08:41:46.523Z,13.48
2019-04-04T08:44:15.684Z,13.10
2019-04-04T08:46:44.872Z,13.72
2019-04-04T08:49:15.206Z,10.85
2019-04-04T08:51:44.465Z,14.10
2019-04-04T08:54:13.679Z,16.65
2019-04-04T08:56:42.845Z,11.57
2019-04-04T08:59:12.137Z,13.05
2019-04-04T09:01:41.334Z,14.70
2019-04-04T09:04:10.587Z,16.73
2019-04-04T09:06:39.772Z,14.80
2019-04-04T09:09:08.981Z,15.00
2019-04-04T09:11:57.586Z,12.07
2019-04-04T09:14:26.834Z,17.87
2019-04-04T09:16:56.026Z,13.65
2019-04-04T09:19:25.192Z,15.78
2019-04-04T09:21:54.455Z,17.10
2019-04-04T09:24:23.616Z,16.27
2019-04-04T09:26:52.779Z,13.85
2019-04-04T09:29:22.189Z,15.72
2019-04-04T09:31:51.389Z,12.53
2019-04-04T09:34:20.625Z,15.03
2019-04-04T09:36:49.772Z,14.47
2019-04-04T09:39:19.015Z,14.20
2019-04-04T09:41:48.179Z,12.88
2019-04-04T09:44:18.666Z,14.35
2019-04-04T09:46:47.940Z,16.65
2019-04-04T09:49:17.293Z,13.93
2019-04-04T09:51:46.595Z,14.63
2019-04-04T09:54:15.815Z,15.03
2019-04-04T09:56:45.019Z,15.63
2019-04-04T09:59:14.480Z,14.83
2019-04-04T10:01:43.739Z,16.67
2019-04-04T10:04:12.998Z,17.77
2019-04-04T10:06:42.370Z,12.98
2019-04-04T10:09:15.998Z,12.13
2019-04-04T10:11:42.513Z,14.68
2019-04-04T10:14:11.889Z,13.93
2019-04-04T10:16:41.155Z,14.13
2019-04-04T10:19:10.380Z,13.25
2019-04-04T10:21:39.548Z,17.75
2019-04-04T10:24:14.754Z,16.05
2019-04-04T10:26:44.023Z,17.35
2019-04-04T10:29:13.245Z,13.15
2019-04-04T10:31:42.422Z,13.48
2019-04-04T10:34:11.574Z,12.63
2019-04-04T10:36:40.786Z,14.28
2019-04-04T10:39:12.020Z,13.70
2019-04-04T10:41:41.966Z,9.08
2019-04-04T10:44:11.194Z,12.35
2019-04-04T10:46:40.399Z,13.18
2019-04-04T10:49:09.742Z,16.50
2019-04-04T10:51:39.083Z,11.73
2019-04-04T10:54:09.420Z,10.80
2019-04-04T10:56:38.714Z,10.03
2019-04-04T10:59:07.934Z,13.78
2019-04-04T11:01:37.159Z,12.80
2019-04-04T11:04:06.319Z,10.05
2019-04-04T11:06:35.731Z,12.05
2019-04-04T11:09:07.086Z,11.95
2019-04-04T11:11:36.905Z,12.40
2019-04-04T11:14:06.140Z,12.05
2019-04-04T11:16:35.710Z,13.85
2019-04-04T11:19:04.991Z,13.25
2019-04-04T11:21:34.229Z,12.98
2019-04-04T11:24:03.546Z,10.80
2019-04-04T11:26:32.765Z,16.55
2019-04-04T11:29:02.105Z,18.07
2019-04-04T11:31:31.269Z,20.30
2019-04-04T11:34:00.432Z,20.02
2019-04-04T11:36:29.614Z,16.20
2019-04-04T11:38:58.854Z,16.60
2019-04-04T11:41:28.021Z,19.90
2019-04-04T11:43:57.322Z,11.20
2019-04-04T11:46:26.555Z,13.53
2019-04-04T11:48:55.700Z,14.00
2019-04-04T11:51:24.891Z,12.23
2019-04-04T11:53:54.147Z,10.98
2019-04-04T11:56:23.437Z,12.55
2019-04-04T11:58:52.763Z,12.18
2019-04-04T12:01:23.640Z,12.07
2019-04-04T12:03:52.837Z,10.78
2019-04-04T12:06:22.115Z,12.45
2019-04-04T12:08:51.401Z,12.75
2019-04-04T12:11:22.639Z,11.03
2019-04-04T12:13:51.431Z,13.30
2019-04-04T12:16:20.680Z,14.40
2019-04-04T12:18:49.872Z,16.95
2019-04-04T12:21:19.220Z,16.48
2019-04-04T12:23:51.240Z,15.10
2019-04-04T12:26:19.362Z,16.27
2019-04-04T12:28:48.649Z,16.15
2019-04-04T12:31:19.070Z,13.85
2019-04-04T12:33:48.364Z,18.87
2019-04-04T12:36:24.565Z,17.87
2019-04-04T12:38:48.715Z,19.15
2019-04-04T12:41:18.066Z,20.62
2019-04-04T12:43:47.283Z,13.83
2019-04-04T12:46:16.569Z,16.55
2019-04-04T12:48:45.934Z,15.05
2019-04-04T12:51:15.192Z,16.93
2019-04-04T12:53:44.476Z,14.78
2019-04-04T12:56:13.775Z,15.20
2019-04-04T12:58:42.952Z,15.48
2019-04-04T13:01:12.214Z,16.20
2019-04-04T13:03:41.509Z,15.83
2019-04-04T13:06:10.783Z,13.22
2019-04-04T13:08:41.449Z,13.70
2019-04-04T13:11:10.780Z,12.28
2019-04-04T13:13:40.366Z,16.57
2019-04-04T13:16:09.701Z,21.45
2019-04-04T13:18:38.963Z,16.07
2019-04-04T13:21:08.247Z,21.48
2019-04-04T13:23:37.511Z,15.45
2019-04-04T13:26:06.903Z,17.35
2019-04-04T13:28:36.120Z,23.73
2019-04-04T13:31:05.345Z,21.27
2019-04-04T13:33:34.631Z,17.95
2019-04-04T13:36:04.047Z,28.27
2019-04-04T13:38:33.440Z,23.12
2019-04-04T13:41:02.717Z,20.02
2019-04-04T13:43:31.992Z,19.67
2019-04-04T13:46:01.441Z,18.60
2019-04-04T13:48:30.766Z,21.23
2019-04-04T13:51:01.761Z,20.40
2019-04-04T13:53:32.400Z,17.55
2019-04-04T13:56:01.865Z,20.23
2019-04-04T13:58:31.431Z,16.55
2019-04-04T14:01:00.822Z,23.30
2019-04-04T14:03:31.385Z,17.57
2019-04-04T14:06:01.941Z,23.55
2019-04-04T14:08:31.535Z,24.00
2019-04-04T14:11:00.808Z,18.70
2019-04-04T14:13:30.472Z,20.70
2019-04-04T14:15:59.846Z,17.73
2019-04-04T14:18:39.412Z,17.30
2019-04-04T14:21:03.894Z,5.90
2019-04-04T14:23:31.568Z,13.22
2019-04-04T14:26:00.856Z,10.25
2019-04-04T14:28:30.215Z,10.93
2019-04-04T14:30:59.556Z,12.33
2019-04-04T14:33:28.763Z,11.68
2019-04-04T14:35:58.397Z,15.13
2019-04-04T14:38:27.628Z,12.88
2019-04-04T14:40:56.870Z,12.33
2019-04-04T14:43:26.063Z,12.15
2019-04-04T14:45:55.528Z,15.53
2019-04-04T14:48:24.768Z,20.05
2019-04-04T14:50:54.121Z,15.85
2019-04-04T14:53:24.151Z,10.72
2019-04-04T14:55:54.315Z,16.80
2019-04-04T14:58:23.650Z,16.25
2019-04-04T15:00:52.960Z,11.20
2019-04-04T15:03:22.171Z,11.93
2019-04-04T15:05:51.400Z,11.50
2019-04-04T15:08:20.605Z,15.03
2019-04-04T15:10:49.883Z,14.47
2019-04-04T15:13:19.221Z,11.00
2019-04-04T15:16:10.658Z,14.15
2019-04-04T15:18:39.911Z,14.03
2019-04-04T15:21:09.992Z,13.30
2019-04-04T15:23:39.244Z,10.28
2019-04-04T15:26:09.948Z,9.10
2019-04-04T15:28:39.527Z,13.43
2019-04-04T15:31:08.906Z,10.35
2019-04-04T15:33:38.346Z,13.25
2019-04-04T15:36:07.613Z,11.43
2019-04-04T15:38:36.899Z,13.80
2019-04-04T15:41:06.183Z,12.80
2019-04-04T15:43:35.589Z,10.90
2019-04-04T15:46:04.926Z,10.95
2019-04-04T15:48:35.456Z,10.50
2019-04-04T15:51:04.702Z,10.88
2019-04-04T15:53:34.059Z,13.65
2019-04-04T15:56:04.511Z,10.85
2019-04-04T15:58:33.854Z,13.05
2019-04-04T16:01:03.303Z,9.98
2019-04-04T16:03:33.446Z,12.50
2019-04-04T16:06:02.666Z,13.58
2019-04-04T16:08:31.898Z,13.13
2019-04-04T16:11:01.189Z,17.00
2019-04-04T16:13:30.745Z,17.57
2019-04-04T16:16:00.439Z,15.30
2019-04-04T16:18:29.754Z,19.62
2019-04-04T16:20:59.021Z,23.35
2019-04-04T16:23:29.144Z,12.33
2019-04-04T16:26:07.632Z,12.35
2019-04-04T16:28:37.683Z,11.38
2019-04-04T16:31:07.015Z,12.55
2019-04-04T16:33:36.371Z,14.63
2019-04-04T16:36:05.735Z,16.48
2019-04-04T16:38:34.986Z,15.68
2019-04-04T16:41:04.747Z,18.60
2019-04-04T16:43:34.095Z,11.65
2019-04-04T16:46:03.433Z,14.45
2019-04-04T16:48:32.790Z,16.50
2019-04-04T16:51:02.186Z,13.10
2019-04-04T16:53:31.544Z,12.30
2019-04-04T16:56:00.814Z,14.10
2019-04-04T16:58:31.416Z,16.27
2019-04-04T17:01:00.762Z,15.18
2019-04-04T17:03:36.714Z,15.05
2019-04-04T17:06:06.355Z,12.78
2019-04-04T17:08:37.591Z,14.87
2019-04-04T17:11:06.718Z,19.12
2019-04-04T17:13:36.254Z,14.18
2019-04-04T17:16:05.600Z,18.40
2019-04-04T17:18:34.976Z,17.48
2019-04-04T17:21:05.643Z,20.88
2019-04-04T17:23:35.168Z,16.40
2019-04-04T17:26:04.426Z,15.13
2019-04-04T17:28:34.125Z,17.45
2019-04-04T17:31:03.630Z,18.70
2019-04-04T17:33:34.523Z,19.00
2019-04-04T17:36:03.940Z,13.75
2019-04-04T17:38:33.453Z,15.32
2019-04-04T17:41:02.886Z,19.67
2019-04-04T17:43:32.432Z,16.37
2019-04-04T17:46:02.117Z,14.75
2019-04-04T17:48:32.916Z,16.12
2019-04-04T17:51:03.129Z,15.88
2019-04-04T17:53:32.439Z,15.35
2019-04-04T17:56:01.890Z,16.07
2019-04-04T17:58:31.342Z,15.70
2019-04-04T18:01:01.502Z,14.83
2019-04-04T18:03:31.886Z,18.73
2019-04-04T18:06:01.053Z,12.13
2019-04-04T18:08:30.381Z,16.32
2019-04-04T18:10:59.677Z,14.38
2019-04-04T18:13:28.901Z,13.80
2019-04-04T18:15:58.255Z,11.10
2019-04-04T18:18:27.514Z,11.97
2019-04-04T18:20:56.746Z,12.28
2019-04-04T18:23:27.207Z,16.07
2019-04-04T18:25:56.487Z,13.08
2019-04-04T18:28:25.806Z,12.53
2019-04-04T18:30:55.087Z,14.75
2019-04-04T18:33:24.513Z,12.45
2019-04-04T18:35:54.314Z,10.95
2019-04-04T18:38:23.921Z,13.75
2019-04-04T18:40:53.526Z,14.10
2019-04-04T18:43:30.111Z,11.03
2019-04-04T18:45:59.529Z,14.00
2019-04-04T18:48:28.938Z,12.90
2019-04-04T18:50:58.936Z,10.95
2019-04-04T18:53:28.525Z,13.30
2019-04-04T18:55:57.844Z,10.53
2019-04-04T18:58:27.119Z,8.50
2019-04-04T19:00:57.472Z,4.83
2019-04-04T19:03:29.513Z,2.95
2019-04-04T19:05:59.541Z,4.72
2019-04-04T19:08:31.835Z,4.22
2019-04-04T19:11:06.954Z,5.42
2019-04-04T19:16:19.722Z,4.65
2019-04-04T19:19:17.387Z,6.33
2019-04-04T19:21:48.531Z,6.75
2019-04-04T19:24:20.703Z,7.85
2019-04-04T19:26:52.129Z,6.95
2019-04-04T19:29:21.569Z,8.23
2019-04-04T19:31:50.795Z,9.05
2019-04-04T19:34:22.180Z,9.78
2019-04-04T19:36:53.567Z,9.73
2019-04-04T19:39:24.456Z,9.68
2019-04-04T19:41:55.448Z,10.28
2019-04-04T19:44:26.514Z,10.00
2019-04-04T19:46:56.283Z,9.63
2019-04-04T19:49:28.618Z,10.20
2019-04-04T19:51:58.162Z,8.78
2019-04-04T19:54:29.590Z,8.88
2019-04-04T19:57:03.052Z,9.03
2019-04-04T19:59:37.842Z,6.35
2019-04-04T20:02:11.218Z,8.15
2019-04-04T20:04:45.960Z,10.45
2019-04-04T20:07:20.526Z,10.90
2019-04-04T20:09:53.816Z,10.13
2019-04-04T20:12:36.069Z,9.38
2019-04-04T20:15:17.095Z,7.33
2019-04-04T20:17:51.484Z,8.50
2019-04-04T20:20:27.489Z,7.72
2019-04-04T20:23:05.551Z,8.55
2019-04-04T20:25:44.738Z,7.08
2019-04-04T20:28:32.629Z,6.97
2019-04-04T20:31:10.241Z,7.72
2019-04-04T20:34:00.436Z,9.48
2019-04-04T20:36:25.268Z,8.75
2019-04-04T20:39:01.158Z,8.65
2019-04-04T20:41:35.956Z,9.70
2019-04-04T20:44:10.114Z,8.60
2019-04-04T20:46:42.273Z,8.98
2019-04-04T20:49:14.952Z,8.55
2019-04-04T20:51:46.013Z,9.68
2019-04-04T20:54:16.671Z,13.10
2019-04-04T20:56:49.561Z,13.60
2019-04-04T20:59:22.835Z,12.05
2019-04-04T21:01:55.654Z,9.95
2019-04-04T21:04:29.823Z,10.28
2019-04-04T21:07:06.094Z,17.12
2019-04-04T21:09:45.489Z,11.97
2019-04-04T21:12:25.633Z,11.63
2019-04-04T21:15:01.280Z,11.80
2019-04-04T21:17:32.691Z,14.28
2019-04-04T21:20:09.448Z,12.13
2019-04-04T21:22:45.573Z,12.05
2019-04-04T21:25:18.901Z,17.90
2019-04-04T21:28:02.065Z,14.28
2019-04-04T21:30:36.227Z,15.38
2019-04-04T21:35:53.981Z,18.15
2019-04-04T21:38:28.211Z,15.88
2019-04-04T21:41:02.682Z,14.60
2019-04-04T21:43:39.041Z,14.38
2019-04-04T21:46:19.132Z,16.10
2019-04-04T21:48:53.269Z,16.82
2019-04-04T21:51:28.827Z,15.63
2019-04-04T21:54:14.236Z,14.90
2019-04-04T21:56:46.912Z,15.53
2019-04-04T21:59:23.714Z,15.20
2019-04-04T22:02:02.389Z,14.73
2019-04-04T22:04:36.647Z,15.95
2019-04-04T22:07:10.548Z,18.80
2019-04-04T22:09:45.226Z,16.60
2019-04-04T22:12:18.762Z,16.32
2019-04-04T22:14:50.313Z,15.40
2019-04-04T22:17:23.891Z,16.12
2019-04-04T22:19:57.835Z,15.32
2019-04-04T22:22:27.068Z,15.75
2019-04-04T22:24:57.775Z,18.02
2019-04-04T22:27:28.155Z,17.95
2019-04-04T22:29:59.480Z,17.10
2019-04-04T22:32:34.706Z,16.37
2019-04-04T22:35:06.464Z,14.07
2019-04-04T22:37:35.700Z,11.35
2019-04-04T22:40:07.419Z,11.15
2019-04-04T22:42:40.638Z,10.85
2019-04-04T22:45:10.228Z,10.32
2019-04-04T22:47:41.808Z,10.28
2019-04-04T22:50:11.391Z,9.30
2019-04-04T22:52:40.551Z,9.38
2019-04-04T22:55:11.992Z,9.85
2019-04-04T22:57:43.812Z,8.98
2019-04-04T23:00:13.232Z,8.50
2019-04-04T23:02:44.389Z,7.70
2019-04-04T23:05:13.570Z,7.15
2019-04-04T23:07:44.001Z,6.20
2019-04-04T23:10:13.288Z,6.10
2019-04-04T23:12:42.451Z,5.95
2019-04-04T23:15:11.916Z,5.95
2019-04-04T23:17:41.169Z,5.95
2019-04-04T23:20:10.681Z,6.55
2019-04-04T23:22:52.268Z,5.92
2019-04-04T23:25:10.844Z,6.55
2019-04-04T23:27:40.031Z,5.20
2019-04-04T23:30:09.189Z,5.78
2019-04-04T23:32:41.061Z,5.58
2019-04-04T23:35:10.239Z,5.70
2019-04-04T23:37:40.655Z,6.05
2019-04-04T23:40:10.961Z,8.08
2019-04-04T23:42:40.369Z,6.25
2019-04-04T23:45:09.631Z,6.53
2019-04-04T23:47:43.221Z,6.37
2019-04-04T23:50:10.778Z,7.15
2019-04-04T23:52:39.945Z,6.55
2019-04-04T23:55:12.008Z,7.30
2019-04-04T23:57:41.200Z,7.05
